sensor_id;sensor_type;location;lat;lon;timestamp;P1;durP1;ratioP1;P2;durP2;ratioP2
26512;SDS011;14186;53.822;10.152;2024-01-11T00:02:44;21.88;;;9.00;;
26512;SDS011;14186;53.822;10.152;2024-01-11T00:07:44;30.55;;;11.55;;
26512;SDS011;14186;53.822;10.152;2024-01-11T00:12:44;21.70;;;8.50;;
26512;SDS011;14186;53.822;10.152;2024-01-11T00:17:46;18.85;;;6.85;;
26512;SDS011;14186;53.822;10.152;2024-01-11T00:22:46;17.30;;;6.97;;
26512;SDS011;14186;53.822;10.152;2024-01-11T00:27:46;16.95;;;7.43;;
26512;SDS011;14186;53.822;10.152;2024-01-11T00:32:48;15.88;;;7.05;;
26512;SDS011;14186;53.822;10.152;2024-01-11T00:37:48;15.25;;;7.10;;
26512;SDS011;14186;53.822;10.152;2024-01-11T00:42:48;18.17;;;7.53;;
26512;SDS011;14186;53.822;10.152;2024-01-11T00:47:50;20.35;;;7.47;;
26512;SDS011;14186;53.822;10.152;2024-01-11T00:52:50;19.67;;;8.82;;
26512;SDS011;14186;53.822;10.152;2024-01-11T00:57:50;16.33;;;7.30;;
26512;SDS011;14186;53.822;10.152;2024-01-11T01:02:51;21.02;;;7.28;;
26512;SDS011;14186;53.822;10.152;2024-01-11T01:07:52;15.75;;;6.82;;
26512;SDS011;14186;53.822;10.152;2024-01-11T01:12:52;21.52;;;7.18;;
26512;SDS011;14186;53.822;10.152;2024-01-11T01:17:53;16.75;;;7.38;;
26512;SDS011;14186;53.822;10.152;2024-01-11T01:22:54;15.90;;;7.68;;
26512;SDS011;14186;53.822;10.152;2024-01-11T01:27:54;19.45;;;7.20;;
26512;SDS011;14186;53.822;10.152;2024-01-11T01:32:56;23.77;;;9.50;;
26512;SDS011;14186;53.822;10.152;2024-01-11T01:37:56;17.88;;;8.57;;
26512;SDS011;14186;53.822;10.152;2024-01-11T01:42:59;25.27;;;8.40;;
26512;SDS011;14186;53.822;10.152;2024-01-11T01:48:01;21.85;;;9.10;;
26512;SDS011;14186;53.822;10.152;2024-01-11T01:53:02;24.17;;;9.02;;
26512;SDS011;14186;53.822;10.152;2024-01-11T01:58:02;27.35;;;10.23;;
26512;SDS011;14186;53.822;10.152;2024-01-11T02:03:05;19.25;;;8.32;;
26512;SDS011;14186;53.822;10.152;2024-01-11T02:08:06;26.83;;;10.65;;
26512;SDS011;14186;53.822;10.152;2024-01-11T02:13:06;24.23;;;9.65;;
26512;SDS011;14186;53.822;10.152;2024-01-11T02:18:08;23.92;;;8.82;;
26512;SDS011;14186;53.822;10.152;2024-01-11T02:23:11;22.58;;;9.07;;
26512;SDS011;14186;53.822;10.152;2024-01-11T02:28:13;21.50;;;8.85;;
26512;SDS011;14186;53.822;10.152;2024-01-11T02:33:14;22.15;;;8.25;;
26512;SDS011;14186;53.822;10.152;2024-01-11T02:38:14;20.50;;;8.13;;
26512;SDS011;14186;53.822;10.152;2024-01-11T02:43:16;22.63;;;8.82;;
26512;SDS011;14186;53.822;10.152;2024-01-11T02:48:16;20.20;;;7.47;;
26512;SDS011;14186;53.822;10.152;2024-01-11T02:53:16;23.75;;;9.57;;
26512;SDS011;14186;53.822;10.152;2024-01-11T02:58:18;19.77;;;7.72;;
26512;SDS011;14186;53.822;10.152;2024-01-11T03:03:18;23.70;;;7.90;;
26512;SDS011;14186;53.822;10.152;2024-01-11T03:08:18;20.08;;;8.57;;
26512;SDS011;14186;53.822;10.152;2024-01-11T03:13:20;24.58;;;8.15;;
26512;SDS011;14186;53.822;10.152;2024-01-11T03:18:20;25.77;;;9.18;;
26512;SDS011;14186;53.822;10.152;2024-01-11T03:23:20;25.58;;;9.48;;
26512;SDS011;14186;53.822;10.152;2024-01-11T03:28:22;22.00;;;9.00;;
26512;SDS011;14186;53.822;10.152;2024-01-11T03:33:22;25.73;;;8.77;;
26512;SDS011;14186;53.822;10.152;2024-01-11T03:38:22;29.30;;;9.27;;
26512;SDS011;14186;53.822;10.152;2024-01-11T03:43:23;26.90;;;9.00;;
26512;SDS011;14186;53.822;10.152;2024-01-11T03:48:24;28.30;;;9.05;;
26512;SDS011;14186;53.822;10.152;2024-01-11T03:53:24;21.60;;;7.38;;
26512;SDS011;14186;53.822;10.152;2024-01-11T03:58:26;23.55;;;7.57;;
26512;SDS011;14186;53.822;10.152;2024-01-11T04:03:26;24.77;;;7.22;;
26512;SDS011;14186;53.822;10.152;2024-01-11T04:08:26;20.83;;;6.95;;
26512;SDS011;14186;53.822;10.152;2024-01-11T04:13:28;20.95;;;7.85;;
26512;SDS011;14186;53.822;10.152;2024-01-11T04:18:28;25.25;;;8.07;;
26512;SDS011;14186;53.822;10.152;2024-01-11T04:23:28;21.08;;;7.35;;
26512;SDS011;14186;53.822;10.152;2024-01-11T04:28:30;19.08;;;7.30;;
26512;SDS011;14186;53.822;10.152;2024-01-11T04:33:30;16.52;;;6.95;;
26512;SDS011;14186;53.822;10.152;2024-01-11T04:38:30;23.90;;;7.32;;
26512;SDS011;14186;53.822;10.152;2024-01-11T04:43:32;18.95;;;7.40;;
26512;SDS011;14186;53.822;10.152;2024-01-11T04:48:32;17.67;;;6.40;;
26512;SDS011;14186;53.822;10.152;2024-01-11T04:53:32;14.30;;;6.75;;
26512;SDS011;14186;53.822;10.152;2024-01-11T04:58:34;14.50;;;5.88;;
26512;SDS011;14186;53.822;10.152;2024-01-11T05:03:34;22.50;;;5.93;;
26512;SDS011;14186;53.822;10.152;2024-01-11T05:08:34;15.40;;;5.57;;
26512;SDS011;14186;53.822;10.152;2024-01-11T05:13:36;14.82;;;6.60;;
26512;SDS011;14186;53.822;10.152;2024-01-11T05:18:36;11.43;;;4.68;;
26512;SDS011;14186;53.822;10.152;2024-01-11T05:23:36;16.38;;;4.75;;
26512;SDS011;14186;53.822;10.152;2024-01-11T05:28:37;14.48;;;4.88;;
26512;SDS011;14186;53.822;10.152;2024-01-11T05:33:38;9.10;;;3.13;;
26512;SDS011;14186;53.822;10.152;2024-01-11T05:38:38;17.83;;;3.40;;
26512;SDS011;14186;53.822;10.152;2024-01-11T05:43:40;14.48;;;3.97;;
26512;SDS011;14186;53.822;10.152;2024-01-11T05:48:41;13.10;;;2.90;;
26512;SDS011;14186;53.822;10.152;2024-01-11T05:53:41;11.70;;;3.13;;
26512;SDS011;14186;53.822;10.152;2024-01-11T05:58:43;9.25;;;2.80;;
26512;SDS011;14186;53.822;10.152;2024-01-11T06:03:43;6.43;;;2.03;;
26512;SDS011;14186;53.822;10.152;2024-01-11T06:08:43;7.15;;;1.92;;
26512;SDS011;14186;53.822;10.152;2024-01-11T06:13:45;12.10;;;2.70;;
26512;SDS011;14186;53.822;10.152;2024-01-11T06:18:45;6.53;;;2.33;;
26512;SDS011;14186;53.822;10.152;2024-01-11T06:23:45;7.97;;;2.60;;
26512;SDS011;14186;53.822;10.152;2024-01-11T06:28:48;10.70;;;2.45;;
26512;SDS011;14186;53.822;10.152;2024-01-11T06:33:48;7.20;;;2.42;;
26512;SDS011;14186;53.822;10.152;2024-01-11T06:38:48;14.25;;;2.58;;
26512;SDS011;14186;53.822;10.152;2024-01-11T06:43:50;13.80;;;3.08;;
26512;SDS011;14186;53.822;10.152;2024-01-11T06:48:50;10.45;;;2.05;;
26512;SDS011;14186;53.822;10.152;2024-01-11T06:53:51;6.40;;;2.13;;
26512;SDS011;14186;53.822;10.152;2024-01-11T06:58:52;6.00;;;2.42;;
26512;SDS011;14186;53.822;10.152;2024-01-11T07:03:53;5.47;;;1.92;;
26512;SDS011;14186;53.822;10.152;2024-01-11T07:08:53;8.88;;;3.13;;
26512;SDS011;14186;53.822;10.152;2024-01-11T07:13:54;6.30;;;2.05;;
26512;SDS011;14186;53.822;10.152;2024-01-11T07:18:55;6.47;;;1.80;;
26512;SDS011;14186;53.822;10.152;2024-01-11T07:23:55;7.45;;;1.95;;
26512;SDS011;14186;53.822;10.152;2024-01-11T07:28:56;5.55;;;2.08;;
26512;SDS011;14186;53.822;10.152;2024-01-11T07:33:57;11.73;;;2.85;;
26512;SDS011;14186;53.822;10.152;2024-01-11T07:38:57;8.70;;;2.45;;
26512;SDS011;14186;53.822;10.152;2024-01-11T07:43:59;6.38;;;2.10;;
26512;SDS011;14186;53.822;10.152;2024-01-11T07:48:59;7.13;;;2.33;;
26512;SDS011;14186;53.822;10.152;2024-01-11T07:53:59;9.65;;;2.60;;
26512;SDS011;14186;53.822;10.152;2024-01-11T07:59:00;5.20;;;1.75;;
26512;SDS011;14186;53.822;10.152;2024-01-11T08:04:01;9.68;;;2.92;;
26512;SDS011;14186;53.822;10.152;2024-01-11T08:09:01;11.10;;;2.43;;
26512;SDS011;14186;53.822;10.152;2024-01-11T08:14:04;9.80;;;2.72;;
26512;SDS011;14186;53.822;10.152;2024-01-11T08:19:04;12.45;;;2.80;;
26512;SDS011;14186;53.822;10.152;2024-01-11T08:24:04;9.48;;;2.70;;
26512;SDS011;14186;53.822;10.152;2024-01-11T08:29:06;8.38;;;2.35;;
26512;SDS011;14186;53.822;10.152;2024-01-11T08:34:06;8.50;;;2.83;;
26512;SDS011;14186;53.822;10.152;2024-01-11T08:39:06;10.48;;;2.72;;
26512;SDS011;14186;53.822;10.152;2024-01-11T08:44:08;9.07;;;3.22;;
26512;SDS011;14186;53.822;10.152;2024-01-11T08:49:08;11.82;;;3.40;;
26512;SDS011;14186;53.822;10.152;2024-01-11T08:54:08;9.30;;;3.20;;
26512;SDS011;14186;53.822;10.152;2024-01-11T08:59:10;12.00;;;3.88;;
26512;SDS011;14186;53.822;10.152;2024-01-11T09:04:10;9.55;;;2.80;;
26512;SDS011;14186;53.822;10.152;2024-01-11T09:09:10;7.47;;;2.55;;
26512;SDS011;14186;53.822;10.152;2024-01-11T09:14:12;5.78;;;2.22;;
26512;SDS011;14186;53.822;10.152;2024-01-11T09:19:12;8.27;;;2.45;;
26512;SDS011;14186;53.822;10.152;2024-01-11T09:24:12;10.75;;;2.97;;
26512;SDS011;14186;53.822;10.152;2024-01-11T09:29:14;11.40;;;3.28;;
26512;SDS011;14186;53.822;10.152;2024-01-11T09:34:14;10.27;;;2.58;;
26512;SDS011;14186;53.822;10.152;2024-01-11T09:39:14;13.10;;;4.45;;
26512;SDS011;14186;53.822;10.152;2024-01-11T09:44:16;8.50;;;3.05;;
26512;SDS011;14186;53.822;10.152;2024-01-11T09:49:16;11.82;;;2.92;;
26512;SDS011;14186;53.822;10.152;2024-01-11T09:54:17;9.02;;;2.45;;
26512;SDS011;14186;53.822;10.152;2024-01-11T09:59:20;8.35;;;2.30;;
26512;SDS011;14186;53.822;10.152;2024-01-11T10:04:20;8.10;;;2.72;;
26512;SDS011;14186;53.822;10.152;2024-01-11T10:09:20;18.27;;;4.10;;
26512;SDS011;14186;53.822;10.152;2024-01-11T10:14:22;12.40;;;4.32;;
26512;SDS011;14186;53.822;10.152;2024-01-11T10:19:22;12.30;;;3.35;;
26512;SDS011;14186;53.822;10.152;2024-01-11T10:24:22;8.23;;;2.92;;
26512;SDS011;14186;53.822;10.152;2024-01-11T10:29:24;11.93;;;4.70;;
26512;SDS011;14186;53.822;10.152;2024-01-11T10:34:27;11.50;;;4.30;;
26512;SDS011;14186;53.822;10.152;2024-01-11T10:39:27;12.98;;;3.58;;
26512;SDS011;14186;53.822;10.152;2024-01-11T10:44:29;12.77;;;4.10;;
26512;SDS011;14186;53.822;10.152;2024-01-11T10:49:32;12.07;;;4.55;;
26512;SDS011;14186;53.822;10.152;2024-01-11T10:54:33;16.15;;;6.40;;
26512;SDS011;14186;53.822;10.152;2024-01-11T10:59:35;15.77;;;5.40;;
26512;SDS011;14186;53.822;10.152;2024-01-11T11:04:37;12.98;;;4.70;;
26512;SDS011;14186;53.822;10.152;2024-01-11T11:09:38;9.48;;;3.40;;
26512;SDS011;14186;53.822;10.152;2024-01-11T11:14:39;11.88;;;3.97;;
26512;SDS011;14186;53.822;10.152;2024-01-11T11:19:40;17.17;;;5.32;;
26512;SDS011;14186;53.822;10.152;2024-01-11T11:24:40;15.90;;;6.13;;
26512;SDS011;14186;53.822;10.152;2024-01-11T11:29:42;15.52;;;5.85;;
26512;SDS011;14186;53.822;10.152;2024-01-11T11:34:46;20.48;;;7.93;;
26512;SDS011;14186;53.822;10.152;2024-01-11T11:39:46;21.23;;;7.70;;
26512;SDS011;14186;53.822;10.152;2024-01-11T11:44:49;15.70;;;4.85;;
26512;SDS011;14186;53.822;10.152;2024-01-11T11:49:57;13.25;;;4.35;;
26512;SDS011;14186;53.822;10.152;2024-01-11T11:54:57;13.32;;;4.35;;
26512;SDS011;14186;53.822;10.152;2024-01-11T11:59:59;15.25;;;4.85;;
26512;SDS011;14186;53.822;10.152;2024-01-11T12:04:59;13.52;;;3.50;;
26512;SDS011;14186;53.822;10.152;2024-01-11T12:10:00;12.85;;;4.35;;
26512;SDS011;14186;53.822;10.152;2024-01-11T12:15:03;13.15;;;5.18;;
26512;SDS011;14186;53.822;10.152;2024-01-11T12:20:03;12.52;;;4.35;;
26512;SDS011;14186;53.822;10.152;2024-01-11T12:25:04;12.32;;;5.25;;
26512;SDS011;14186;53.822;10.152;2024-01-11T12:30:07;11.30;;;4.78;;
26512;SDS011;14186;53.822;10.152;2024-01-11T12:35:07;10.98;;;3.80;;
26512;SDS011;14186;53.822;10.152;2024-01-11T12:40:08;8.55;;;3.78;;
26512;SDS011;14186;53.822;10.152;2024-01-11T12:45:14;9.73;;;3.37;;
26512;SDS011;14186;53.822;10.152;2024-01-11T12:50:14;10.38;;;3.42;;
26512;SDS011;14186;53.822;10.152;2024-01-11T12:55:17;6.53;;;3.42;;
26512;SDS011;14186;53.822;10.152;2024-01-11T13:00:19;13.98;;;4.25;;
26512;SDS011;14186;53.822;10.152;2024-01-11T13:05:20;11.05;;;3.28;;
26512;SDS011;14186;53.822;10.152;2024-01-11T13:10:20;9.07;;;3.08;;
26512;SDS011;14186;53.822;10.152;2024-01-11T13:15:22;9.93;;;3.15;;
26512;SDS011;14186;53.822;10.152;2024-01-11T13:20:22;11.60;;;3.65;;
26512;SDS011;14186;53.822;10.152;2024-01-11T13:25:22;19.55;;;6.60;;
26512;SDS011;14186;53.822;10.152;2024-01-11T13:30:24;8.50;;;3.50;;
26512;SDS011;14186;53.822;10.152;2024-01-11T13:35:24;9.13;;;3.60;;
26512;SDS011;14186;53.822;10.152;2024-01-11T13:40:24;11.80;;;3.45;;
26512;SDS011;14186;53.822;10.152;2024-01-11T13:45:26;15.98;;;4.90;;
26512;SDS011;14186;53.822;10.152;2024-01-11T13:50:26;15.07;;;3.75;;
26512;SDS011;14186;53.822;10.152;2024-01-11T13:55:26;15.02;;;4.03;;
26512;SDS011;14186;53.822;10.152;2024-01-11T14:00:28;16.02;;;4.65;;
26512;SDS011;14186;53.822;10.152;2024-01-11T14:05:28;10.45;;;3.25;;
26512;SDS011;14186;53.822;10.152;2024-01-11T14:10:28;14.40;;;3.92;;
26512;SDS011;14186;53.822;10.152;2024-01-11T14:15:30;11.25;;;3.70;;
26512;SDS011;14186;53.822;10.152;2024-01-11T14:20:30;12.73;;;3.55;;
26512;SDS011;14186;53.822;10.152;2024-01-11T14:25:30;10.82;;;3.55;;
26512;SDS011;14186;53.822;10.152;2024-01-11T14:30:32;10.02;;;3.15;;
26512;SDS011;14186;53.822;10.152;2024-01-11T14:35:32;12.43;;;4.57;;
26512;SDS011;14186;53.822;10.152;2024-01-11T14:40:32;11.00;;;4.32;;
26512;SDS011;14186;53.822;10.152;2024-01-11T14:45:34;13.63;;;3.78;;
26512;SDS011;14186;53.822;10.152;2024-01-11T14:50:34;11.77;;;3.83;;
26512;SDS011;14186;53.822;10.152;2024-01-11T14:55:35;13.18;;;3.88;;
26512;SDS011;14186;53.822;10.152;2024-01-11T15:00:36;12.52;;;4.18;;
26512;SDS011;14186;53.822;10.152;2024-01-11T15:05:37;9.95;;;4.32;;
26512;SDS011;14186;53.822;10.152;2024-01-11T15:10:37;10.75;;;4.32;;
26512;SDS011;14186;53.822;10.152;2024-01-11T15:15:39;12.32;;;4.45;;
26512;SDS011;14186;53.822;10.152;2024-01-11T15:20:39;14.88;;;4.38;;
26512;SDS011;14186;53.822;10.152;2024-01-11T15:25:39;11.60;;;4.93;;
26512;SDS011;14186;53.822;10.152;2024-01-11T15:30:41;14.57;;;4.28;;
26512;SDS011;14186;53.822;10.152;2024-01-11T15:35:41;7.35;;;3.53;;
26512;SDS011;14186;53.822;10.152;2024-01-11T15:40:41;15.32;;;5.70;;
26512;SDS011;14186;53.822;10.152;2024-01-11T15:45:42;12.00;;;3.97;;
26512;SDS011;14186;53.822;10.152;2024-01-11T15:50:43;11.38;;;4.75;;
26512;SDS011;14186;53.822;10.152;2024-01-11T15:55:43;10.63;;;4.15;;
26512;SDS011;14186;53.822;10.152;2024-01-11T16:00:45;10.93;;;3.63;;
26512;SDS011;14186;53.822;10.152;2024-01-11T16:05:45;13.20;;;4.68;;
26512;SDS011;14186;53.822;10.152;2024-01-11T16:10:45;10.63;;;4.65;;
26512;SDS011;14186;53.822;10.152;2024-01-11T16:15:47;17.83;;;4.95;;
26512;SDS011;14186;53.822;10.152;2024-01-11T16:20:47;8.90;;;4.60;;
26512;SDS011;14186;53.822;10.152;2024-01-11T16:25:47;18.17;;;5.85;;
26512;SDS011;14186;53.822;10.152;2024-01-11T16:30:49;11.55;;;4.90;;
26512;SDS011;14186;53.822;10.152;2024-01-11T16:35:49;7.80;;;3.67;;
26512;SDS011;14186;53.822;10.152;2024-01-11T16:40:49;14.07;;;6.15;;
26512;SDS011;14186;53.822;10.152;2024-01-11T16:45:51;9.70;;;4.70;;
26512;SDS011;14186;53.822;10.152;2024-01-11T16:50:51;13.93;;;4.25;;
26512;SDS011;14186;53.822;10.152;2024-01-11T16:55:51;10.63;;;4.07;;
26512;SDS011;14186;53.822;10.152;2024-01-11T17:00:53;16.35;;;5.57;;
26512;SDS011;14186;53.822;10.152;2024-01-11T17:05:53;14.48;;;4.88;;
26512;SDS011;14186;53.822;10.152;2024-01-11T17:10:53;12.80;;;5.20;;
26512;SDS011;14186;53.822;10.152;2024-01-11T17:15:55;10.02;;;4.25;;
26512;SDS011;14186;53.822;10.152;2024-01-11T17:20:55;13.65;;;5.50;;
26512;SDS011;14186;53.822;10.152;2024-01-11T17:25:55;18.25;;;5.68;;
26512;SDS011;14186;53.822;10.152;2024-01-11T17:30:57;22.90;;;6.40;;
26512;SDS011;14186;53.822;10.152;2024-01-11T17:35:57;16.13;;;6.55;;
26512;SDS011;14186;53.822;10.152;2024-01-11T17:40:57;17.77;;;7.03;;
26512;SDS011;14186;53.822;10.152;2024-01-11T17:45:59;18.52;;;7.57;;
26512;SDS011;14186;53.822;10.152;2024-01-11T17:50:59;17.00;;;6.43;;
26512;SDS011;14186;53.822;10.152;2024-01-11T17:56:02;13.07;;;6.30;;
26512;SDS011;14186;53.822;10.152;2024-01-11T18:01:03;10.13;;;4.72;;
26512;SDS011;14186;53.822;10.152;2024-01-11T18:06:04;15.65;;;5.28;;
26512;SDS011;14186;53.822;10.152;2024-01-11T18:11:04;12.00;;;6.05;;
26512;SDS011;14186;53.822;10.152;2024-01-11T18:16:06;9.65;;;4.50;;
26512;SDS011;14186;53.822;10.152;2024-01-11T18:21:06;10.68;;;4.43;;
26512;SDS011;14186;53.822;10.152;2024-01-11T18:26:06;17.08;;;5.65;;
26512;SDS011;14186;53.822;10.152;2024-01-11T18:31:07;14.82;;;5.97;;
26512;SDS011;14186;53.822;10.152;2024-01-11T18:36:08;20.65;;;7.68;;
26512;SDS011;14186;53.822;10.152;2024-01-11T18:41:08;19.70;;;6.28;;
26512;SDS011;14186;53.822;10.152;2024-01-11T18:46:09;19.40;;;6.97;;
26512;SDS011;14186;53.822;10.152;2024-01-11T18:51:10;17.67;;;6.32;;
26512;SDS011;14186;53.822;10.152;2024-01-11T18:56:13;15.45;;;5.72;;
26512;SDS011;14186;53.822;10.152;2024-01-11T19:01:14;13.38;;;5.70;;
26512;SDS011;14186;53.822;10.152;2024-01-11T19:06:15;18.17;;;6.55;;
26512;SDS011;14186;53.822;10.152;2024-01-11T19:11:15;26.15;;;11.98;;
26512;SDS011;14186;53.822;10.152;2024-01-11T19:16:16;21.52;;;10.65;;
26512;SDS011;14186;53.822;10.152;2024-01-11T19:21:17;18.80;;;8.65;;
26512;SDS011;14186;53.822;10.152;2024-01-11T19:26:17;18.20;;;7.63;;
26512;SDS011;14186;53.822;10.152;2024-01-11T19:31:18;20.45;;;7.40;;
26512;SDS011;14186;53.822;10.152;2024-01-11T19:36:19;19.05;;;9.05;;
26512;SDS011;14186;53.822;10.152;2024-01-11T19:41:22;22.17;;;8.15;;
26512;SDS011;14186;53.822;10.152;2024-01-11T19:46:24;26.50;;;10.35;;
26512;SDS011;14186;53.822;10.152;2024-01-11T19:51:24;17.70;;;7.45;;
26512;SDS011;14186;53.822;10.152;2024-01-11T19:56:24;17.92;;;8.52;;
26512;SDS011;14186;53.822;10.152;2024-01-11T20:01:26;12.18;;;5.95;;
26512;SDS011;14186;53.822;10.152;2024-01-11T20:06:26;14.23;;;7.72;;
26512;SDS011;14186;53.822;10.152;2024-01-11T20:11:26;23.52;;;8.07;;
26512;SDS011;14186;53.822;10.152;2024-01-11T20:16:28;15.15;;;7.07;;
26512;SDS011;14186;53.822;10.152;2024-01-11T20:21:28;19.08;;;7.60;;
26512;SDS011;14186;53.822;10.152;2024-01-11T20:26:28;14.85;;;6.80;;
26512;SDS011;14186;53.822;10.152;2024-01-11T20:31:30;19.35;;;8.40;;
26512;SDS011;14186;53.822;10.152;2024-01-11T20:36:30;17.42;;;8.13;;
26512;SDS011;14186;53.822;10.152;2024-01-11T20:41:30;18.48;;;7.45;;
26512;SDS011;14186;53.822;10.152;2024-01-11T20:46:32;18.35;;;7.70;;
26512;SDS011;14186;53.822;10.152;2024-01-11T20:51:32;12.63;;;6.22;;
26512;SDS011;14186;53.822;10.152;2024-01-11T20:56:32;12.63;;;6.53;;
26512;SDS011;14186;53.822;10.152;2024-01-11T21:01:33;14.88;;;8.00;;
26512;SDS011;14186;53.822;10.152;2024-01-11T21:06:34;25.17;;;10.52;;
26512;SDS011;14186;53.822;10.152;2024-01-11T21:11:34;23.90;;;8.35;;
26512;SDS011;14186;53.822;10.152;2024-01-11T21:16:35;22.70;;;8.43;;
26512;SDS011;14186;53.822;10.152;2024-01-11T21:21:37;14.60;;;6.22;;
26512;SDS011;14186;53.822;10.152;2024-01-11T21:26:38;15.07;;;6.13;;
26512;SDS011;14186;53.822;10.152;2024-01-11T21:31:40;13.68;;;6.25;;
26512;SDS011;14186;53.822;10.152;2024-01-11T21:36:40;16.88;;;6.03;;
26512;SDS011;14186;53.822;10.152;2024-01-11T21:41:40;20.77;;;7.22;;
26512;SDS011;14186;53.822;10.152;2024-01-11T21:46:42;16.58;;;7.70;;
26512;SDS011;14186;53.822;10.152;2024-01-11T21:51:42;20.15;;;7.20;;
26512;SDS011;14186;53.822;10.152;2024-01-11T21:56:42;11.00;;;6.50;;
26512;SDS011;14186;53.822;10.152;2024-01-11T22:01:44;15.95;;;6.68;;
26512;SDS011;14186;53.822;10.152;2024-01-11T22:06:44;14.13;;;6.38;;
26512;SDS011;14186;53.822;10.152;2024-01-11T22:11:44;14.02;;;5.97;;
26512;SDS011;14186;53.822;10.152;2024-01-11T22:16:46;15.95;;;7.90;;
26512;SDS011;14186;53.822;10.152;2024-01-11T22:21:46;16.13;;;7.35;;
26512;SDS011;14186;53.822;10.152;2024-01-11T22:26:46;16.35;;;6.28;;
26512;SDS011;14186;53.822;10.152;2024-01-11T22:31:48;16.30;;;6.55;;
26512;SDS011;14186;53.822;10.152;2024-01-11T22:36:48;20.27;;;8.35;;
26512;SDS011;14186;53.822;10.152;2024-01-11T22:41:48;16.10;;;6.28;;
26512;SDS011;14186;53.822;10.152;2024-01-11T22:46:50;12.68;;;6.35;;
26512;SDS011;14186;53.822;10.152;2024-01-11T22:51:50;18.77;;;7.03;;
26512;SDS011;14186;53.822;10.152;2024-01-11T22:56:50;18.65;;;6.65;;
26512;SDS011;14186;53.822;10.152;2024-01-11T23:01:52;24.08;;;11.55;;
26512;SDS011;14186;53.822;10.152;2024-01-11T23:06:52;11.80;;;6.68;;
26512;SDS011;14186;53.822;10.152;2024-01-11T23:11:52;16.83;;;7.32;;
26512;SDS011;14186;53.822;10.152;2024-01-11T23:16:54;14.20;;;6.30;;
26512;SDS011;14186;53.822;10.152;2024-01-11T23:21:54;16.60;;;6.85;;
26512;SDS011;14186;53.822;10.152;2024-01-11T23:26:55;12.43;;;6.40;;
26512;SDS011;14186;53.822;10.152;2024-01-11T23:31:56;14.50;;;6.50;;
26512;SDS011;14186;53.822;10.152;2024-01-11T23:36:57;12.90;;;6.45;;
26512;SDS011;14186;53.822;10.152;2024-01-11T23:41:57;14.38;;;6.22;;
26512;SDS011;14186;53.822;10.152;2024-01-11T23:46:58;17.83;;;7.13;;
26512;SDS011;14186;53.822;10.152;2024-01-11T23:51:59;15.82;;;6.32;;
26512;SDS011;14186;53.822;10.152;2024-01-11T23:56:59;15.57;;;6.13;;
